Kiester, Minnesota
Current Conditions -  °F | °C
As of 2:41 PM on Thursday 27 Nov 2014 (Local Time) from KAEL Reporting Station
Clear Clear  
Wind Chill: -17°   Ceiling: Unl
Heat Index: -17°   Visibility: 10mi
Dew Point: -21°   Wind: 2mph
Humidity: 72%   Direction: 350°N
Pressure: 30.41"   Gusts: NA
Location:  43.54°N, 93.71°W
Report Text: KAEL 272041Z AUTO 35002KT 10SM CLR M17/M21 A3041 RMK AO2
Loading
Personal Weather Stations






























Interactive Weather Map New forecast layout! Learn more

10-Day Weather Forecast

Advertisements
Track Severe Weather on mobile